sensor_id;sensor_type;location;lat;lon;timestamp;temperature;humidity
75387;DHT22;63966;47.914;22.266;2023-04-01T00:00:50;10.81;90.10
75387;DHT22;63966;47.914;22.266;2023-04-01T00:03:55;10.84;89.76
75387;DHT22;63966;47.914;22.266;2023-04-01T00:06:59;10.91;89.41
75387;DHT22;63966;47.914;22.266;2023-04-01T00:10:06;10.94;89.17
75387;DHT22;63966;47.914;22.266;2023-04-01T00:13:10;10.93;89.04
75387;DHT22;63966;47.914;22.266;2023-04-01T00:16:14;10.81;89.74
75387;DHT22;63966;47.914;22.266;2023-04-01T00:19:21;10.83;89.80
75387;DHT22;63966;47.914;22.266;2023-04-01T00:22:25;10.94;89.32
75387;DHT22;63966;47.914;22.266;2023-04-01T00:25:29;10.87;89.35
75387;DHT22;63966;47.914;22.266;2023-04-01T00:28:34;10.83;89.65
75387;DHT22;63966;47.914;22.266;2023-04-01T00:31:39;10.76;90.17
75387;DHT22;63966;47.914;22.266;2023-04-01T00:34:42;10.80;90.37
75387;DHT22;63966;47.914;22.266;2023-04-01T00:37:47;10.74;90.72
75387;DHT22;63966;47.914;22.266;2023-04-01T00:40:57;10.69;91.05
75387;DHT22;63966;47.914;22.266;2023-04-01T00:44:21;10.70;91.24
75387;DHT22;63966;47.914;22.266;2023-04-01T00:47:26;10.62;91.72
75387;DHT22;63966;47.914;22.266;2023-04-01T00:50:31;10.57;91.99
75387;DHT22;63966;47.914;22.266;2023-04-01T00:53:40;10.45;92.69
75387;DHT22;63966;47.914;22.266;2023-04-01T00:56:50;10.43;92.97
75387;DHT22;63966;47.914;22.266;2023-04-01T00:59:59;10.42;93.02
75387;DHT22;63966;47.914;22.266;2023-04-01T01:03:02;10.45;92.99
75387;DHT22;63966;47.914;22.266;2023-04-01T01:12:40;10.36;93.52
75387;DHT22;63966;47.914;22.266;2023-04-01T01:16:17;10.38;93.49
75387;DHT22;63966;47.914;22.266;2023-04-01T01:19:46;10.38;93.59
75387;DHT22;63966;47.914;22.266;2023-04-01T01:37:05;10.26;94.08
75387;DHT22;63966;47.914;22.266;2023-04-01T01:40:14;10.26;94.22
75387;DHT22;63966;47.914;22.266;2023-04-01T01:43:21;10.21;94.46
75387;DHT22;63966;47.914;22.266;2023-04-01T01:46:27;10.18;94.49
75387;DHT22;63966;47.914;22.266;2023-04-01T01:49:33;10.24;94.24
75387;DHT22;63966;47.914;22.266;2023-04-01T01:52:37;10.25;94.05
75387;DHT22;63966;47.914;22.266;2023-04-01T01:55:43;10.21;94.18
75387;DHT22;63966;47.914;22.266;2023-04-01T01:58:51;10.22;94.22
75387;DHT22;63966;47.914;22.266;2023-04-01T02:01:57;10.18;94.33
75387;DHT22;63966;47.914;22.266;2023-04-01T02:05:03;10.12;94.30
75387;DHT22;63966;47.914;22.266;2023-04-01T02:08:21;10.14;94.48
75387;DHT22;63966;47.914;22.266;2023-04-01T02:11:30;10.12;94.65
75387;DHT22;63966;47.914;22.266;2023-04-01T02:17:58;10.25;94.21
75387;DHT22;63966;47.914;22.266;2023-04-01T02:21:02;10.15;94.44
75387;DHT22;63966;47.914;22.266;2023-04-01T02:24:12;10.09;94.67
75387;DHT22;63966;47.914;22.266;2023-04-01T02:27:16;10.12;94.64
75387;DHT22;63966;47.914;22.266;2023-04-01T02:30:20;10.12;94.53
75387;DHT22;63966;47.914;22.266;2023-04-01T02:33:24;10.08;94.49
75387;DHT22;63966;47.914;22.266;2023-04-01T02:36:28;10.04;94.71
75387;DHT22;63966;47.914;22.266;2023-04-01T02:39:31;9.95;95.00
75387;DHT22;63966;47.914;22.266;2023-04-01T02:42:35;9.94;95.23
75387;DHT22;63966;47.914;22.266;2023-04-01T02:45:39;9.98;95.35
75387;DHT22;63966;47.914;22.266;2023-04-01T02:48:43;9.97;95.32
75387;DHT22;63966;47.914;22.266;2023-04-01T02:51:46;10.02;95.09
75387;DHT22;63966;47.914;22.266;2023-04-01T02:54:50;10.01;95.27
75387;DHT22;63966;47.914;22.266;2023-04-01T02:57:53;10.04;95.22
75387;DHT22;63966;47.914;22.266;2023-04-01T03:00:57;9.99;95.14
75387;DHT22;63966;47.914;22.266;2023-04-01T03:04:01;9.97;95.12
75387;DHT22;63966;47.914;22.266;2023-04-01T03:07:04;9.91;95.24
75387;DHT22;63966;47.914;22.266;2023-04-01T03:10:08;9.81;95.26
75387;DHT22;63966;47.914;22.266;2023-04-01T03:13:12;9.84;95.61
75387;DHT22;63966;47.914;22.266;2023-04-01T03:16:15;9.73;95.51
75387;DHT22;63966;47.914;22.266;2023-04-01T03:19:19;9.76;95.55
75387;DHT22;63966;47.914;22.266;2023-04-01T03:22:22;9.71;95.18
75387;DHT22;63966;47.914;22.266;2023-04-01T03:25:26;9.74;95.15
75387;DHT22;63966;47.914;22.266;2023-04-01T03:28:32;9.71;95.05
75387;DHT22;63966;47.914;22.266;2023-04-01T03:31:35;9.64;95.03
75387;DHT22;63966;47.914;22.266;2023-04-01T03:34:39;9.49;95.32
75387;DHT22;63966;47.914;22.266;2023-04-01T03:37:42;9.53;95.59
75387;DHT22;63966;47.914;22.266;2023-04-01T03:40:46;9.64;95.55
75387;DHT22;63966;47.914;22.266;2023-04-01T03:43:49;9.63;95.49
75387;DHT22;63966;47.914;22.266;2023-04-01T03:46:53;9.63;95.43
75387;DHT22;63966;47.914;22.266;2023-04-01T03:49:56;9.63;95.35
75387;DHT22;63966;47.914;22.266;2023-04-01T03:53:01;9.53;95.46
75387;DHT22;63966;47.914;22.266;2023-04-01T03:56:06;9.51;95.68
75387;DHT22;63966;47.914;22.266;2023-04-01T03:59:11;9.50;95.87
75387;DHT22;63966;47.914;22.266;2023-04-01T04:02:15;9.51;95.83
75387;DHT22;63966;47.914;22.266;2023-04-01T04:05:19;9.49;95.89
75387;DHT22;63966;47.914;22.266;2023-04-01T04:08:23;9.50;95.87
75387;DHT22;63966;47.914;22.266;2023-04-01T04:11:26;9.46;95.84
75387;DHT22;63966;47.914;22.266;2023-04-01T04:14:30;9.50;95.61
75387;DHT22;63966;47.914;22.266;2023-04-01T04:17:33;9.46;95.73
75387;DHT22;63966;47.914;22.266;2023-04-01T04:20:42;9.49;95.64
75387;DHT22;63966;47.914;22.266;2023-04-01T04:23:46;9.44;95.71
75387;DHT22;63966;47.914;22.266;2023-04-01T04:26:52;9.54;95.35
75387;DHT22;63966;47.914;22.266;2023-04-01T04:29:55;9.47;95.26
75387;DHT22;63966;47.914;22.266;2023-04-01T04:32:59;9.50;95.28
75387;DHT22;63966;47.914;22.266;2023-04-01T04:36:04;9.47;95.25
75387;DHT22;63966;47.914;22.266;2023-04-01T04:39:08;9.46;95.22
75387;DHT22;63966;47.914;22.266;2023-04-01T04:42:14;9.46;95.14
75387;DHT22;63966;47.914;22.266;2023-04-01T04:45:17;9.57;94.70
75387;DHT22;63966;47.914;22.266;2023-04-01T04:48:29;9.57;94.57
75387;DHT22;63966;47.914;22.266;2023-04-01T04:51:33;9.74;93.77
75387;DHT22;63966;47.914;22.266;2023-04-01T04:54:38;9.91;93.19
75387;DHT22;63966;47.914;22.266;2023-04-01T04:57:42;9.84;93.16
75387;DHT22;63966;47.914;22.266;2023-04-01T05:00:46;9.84;93.35
75387;DHT22;63966;47.914;22.266;2023-04-01T05:04:03;9.81;93.15
75387;DHT22;63966;47.914;22.266;2023-04-01T05:07:07;9.90;92.97
75387;DHT22;63966;47.914;22.266;2023-04-01T05:10:10;9.94;92.78
75387;DHT22;63966;47.914;22.266;2023-04-01T05:13:14;9.93;92.82
75387;DHT22;63966;47.914;22.266;2023-04-01T05:16:21;9.88;92.99
75387;DHT22;63966;47.914;22.266;2023-04-01T05:19:25;9.91;92.96
75387;DHT22;63966;47.914;22.266;2023-04-01T05:22:29;9.91;92.88
75387;DHT22;63966;47.914;22.266;2023-04-01T05:25:32;9.95;92.70
75387;DHT22;63966;47.914;22.266;2023-04-01T05:28:36;10.02;92.59
75387;DHT22;63966;47.914;22.266;2023-04-01T05:31:41;10.04;92.39
75387;DHT22;63966;47.914;22.266;2023-04-01T05:34:45;10.15;92.35
75387;DHT22;63966;47.914;22.266;2023-04-01T05:37:48;10.18;91.99
75387;DHT22;63966;47.914;22.266;2023-04-01T05:40:58;10.36;91.01
75387;DHT22;63966;47.914;22.266;2023-04-01T05:44:01;10.49;91.03
75387;DHT22;63966;47.914;22.266;2023-04-01T05:47:28;10.59;90.79
75387;DHT22;63966;47.914;22.266;2023-04-01T05:50:31;10.60;90.64
75387;DHT22;63966;47.914;22.266;2023-04-01T05:53:35;10.83;89.95
75387;DHT22;63966;47.914;22.266;2023-04-01T05:56:38;10.74;89.89
75387;DHT22;63966;47.914;22.266;2023-04-01T05:59:42;10.90;89.60
75387;DHT22;63966;47.914;22.266;2023-04-01T06:02:46;11.04;88.92
75387;DHT22;63966;47.914;22.266;2023-04-01T06:05:50;11.10;88.74
75387;DHT22;63966;47.914;22.266;2023-04-01T06:08:56;11.11;88.36
75387;DHT22;63966;47.914;22.266;2023-04-01T06:35:19;12.55;83.02
75387;DHT22;63966;47.914;22.266;2023-04-01T06:45:39;12.85;79.22
75387;DHT22;63966;47.914;22.266;2023-04-01T06:53:12;13.09;78.16
75387;DHT22;63966;47.914;22.266;2023-04-01T06:56:37;13.72;76.30
75387;DHT22;63966;47.914;22.266;2023-04-01T06:59:49;13.48;76.63
75387;DHT22;63966;47.914;22.266;2023-04-01T07:06:31;14.33;75.19
75387;DHT22;63966;47.914;22.266;2023-04-01T07:09:41;17.34;66.31
75387;DHT22;63966;47.914;22.266;2023-04-01T07:13:09;17.20;65.06
75387;DHT22;63966;47.914;22.266;2023-04-01T07:19:47;17.03;64.70
75387;DHT22;63966;47.914;22.266;2023-04-01T07:22:59;18.59;58.93
75387;DHT22;63966;47.914;22.266;2023-04-01T07:26:22;19.89;54.11
75387;DHT22;63966;47.914;22.266;2023-04-01T07:29:44;20.30;53.29
75387;DHT22;63966;47.914;22.266;2023-04-01T07:56:39;21.74;49.33
75387;DHT22;63966;47.914;22.266;2023-04-01T08:07:24;22.14;47.45
75387;DHT22;63966;47.914;22.266;2023-04-01T08:10:52;22.90;47.40
75387;DHT22;63966;47.914;22.266;2023-04-01T08:21:43;22.28;46.18
75387;DHT22;63966;47.914;22.266;2023-04-01T08:24:48;20.26;53.00
75387;DHT22;63966;47.914;22.266;2023-04-01T08:28:13;19.15;52.99
75387;DHT22;63966;47.914;22.266;2023-04-01T08:34:46;18.79;55.05
75387;DHT22;63966;47.914;22.266;2023-04-01T08:38:23;18.62;56.00
75387;DHT22;63966;47.914;22.266;2023-04-01T08:45:28;18.76;55.38
75387;DHT22;63966;47.914;22.266;2023-04-01T08:48:54;19.03;54.63
75387;DHT22;63966;47.914;22.266;2023-04-01T09:16:22;19.63;51.96
75387;DHT22;63966;47.914;22.266;2023-04-01T09:30:01;18.71;55.64
75387;DHT22;63966;47.914;22.266;2023-04-01T09:50:38;17.27;56.95
75387;DHT22;63966;47.914;22.266;2023-04-01T09:53:59;16.88;57.76
75387;DHT22;63966;47.914;22.266;2023-04-01T10:08:05;17.69;53.14
75387;DHT22;63966;47.914;22.266;2023-04-01T10:28:31;16.45;58.07
75387;DHT22;63966;47.914;22.266;2023-04-01T10:39:07;15.76;60.19
75387;DHT22;63966;47.914;22.266;2023-04-01T10:53:30;15.28;64.24
75387;DHT22;63966;47.914;22.266;2023-04-01T10:57:29;15.33;60.13
75387;DHT22;63966;47.914;22.266;2023-04-01T11:12:01;15.35;60.92
75387;DHT22;63966;47.914;22.266;2023-04-01T11:22:36;15.52;60.71
75387;DHT22;63966;47.914;22.266;2023-04-01T11:39:44;14.77;67.06
75387;DHT22;63966;47.914;22.266;2023-04-01T11:54:00;14.06;70.15
75387;DHT22;63966;47.914;22.266;2023-04-01T11:58:07;14.02;70.37
75387;DHT22;63966;47.914;22.266;2023-04-01T12:11:05;14.26;69.81
75387;DHT22;63966;47.914;22.266;2023-04-01T12:21:29;14.87;68.22
75387;DHT22;63966;47.914;22.266;2023-04-01T12:24:46;15.21;68.84
75387;DHT22;63966;47.914;22.266;2023-04-01T12:44:41;16.04;64.38
75387;DHT22;63966;47.914;22.266;2023-04-01T12:47:55;16.04;63.85
75387;DHT22;63966;47.914;22.266;2023-04-01T12:51:19;15.98;60.53
75387;DHT22;63966;47.914;22.266;2023-04-01T12:58:22;16.36;60.85
75387;DHT22;63966;47.914;22.266;2023-04-01T13:05:32;16.29;59.34
75387;DHT22;63966;47.914;22.266;2023-04-01T13:15:28;16.52;56.89
75387;DHT22;63966;47.914;22.266;2023-04-01T13:25:59;16.05;58.10
75387;DHT22;63966;47.914;22.266;2023-04-01T13:29:18;16.28;58.07
75387;DHT22;63966;47.914;22.266;2023-04-01T13:32:37;16.19;58.36
75387;DHT22;63966;47.914;22.266;2023-04-01T13:42:33;15.98;58.45
75387;DHT22;63966;47.914;22.266;2023-04-01T13:45:53;16.04;58.65
75387;DHT22;63966;47.914;22.266;2023-04-01T13:49:07;16.08;59.48
75387;DHT22;63966;47.914;22.266;2023-04-01T13:55:26;16.15;60.27
75387;DHT22;63966;47.914;22.266;2023-04-01T13:58:45;16.28;57.87
75387;DHT22;63966;47.914;22.266;2023-04-01T14:08:53;16.41;56.93
75387;DHT22;63966;47.914;22.266;2023-04-01T14:23:00;16.46;57.74
75387;DHT22;63966;47.914;22.266;2023-04-01T14:26:35;16.35;56.61
75387;DHT22;63966;47.914;22.266;2023-04-01T14:33:18;16.41;59.16
75387;DHT22;63966;47.914;22.266;2023-04-01T14:37:12;16.25;58.78
75387;DHT22;63966;47.914;22.266;2023-04-01T14:50:54;16.29;58.61
75387;DHT22;63966;47.914;22.266;2023-04-01T14:54:37;16.08;60.30
75387;DHT22;63966;47.914;22.266;2023-04-01T14:57:41;16.09;59.57
75387;DHT22;63966;47.914;22.266;2023-04-01T15:04:56;15.77;59.88
75387;DHT22;63966;47.914;22.266;2023-04-01T15:11:21;15.52;62.24
75387;DHT22;63966;47.914;22.266;2023-04-01T15:18:09;15.40;63.27
75387;DHT22;63966;47.914;22.266;2023-04-01T15:21:57;15.28;61.60
75387;DHT22;63966;47.914;22.266;2023-04-01T15:31:57;14.98;65.11
75387;DHT22;63966;47.914;22.266;2023-04-01T15:46:09;14.65;65.96
75387;DHT22;63966;47.914;22.266;2023-04-01T15:52:43;14.67;65.18
75387;DHT22;63966;47.914;22.266;2023-04-01T16:03:18;14.54;67.78
75387;DHT22;63966;47.914;22.266;2023-04-01T16:23:48;13.89;70.24
75387;DHT22;63966;47.914;22.266;2023-04-01T16:27:05;13.81;71.85
75387;DHT22;63966;47.914;22.266;2023-04-01T16:30:34;13.62;72.22
75387;DHT22;63966;47.914;22.266;2023-04-01T16:33:52;13.55;72.64
75387;DHT22;63966;47.914;22.266;2023-04-01T16:40:37;13.37;72.87
75387;DHT22;63966;47.914;22.266;2023-04-01T16:43:51;13.21;73.50
75387;DHT22;63966;47.914;22.266;2023-04-01T16:47:05;13.14;74.40
75387;DHT22;63966;47.914;22.266;2023-04-01T16:50:24;13.10;74.26
75387;DHT22;63966;47.914;22.266;2023-04-01T16:53:43;13.12;73.81
75387;DHT22;63966;47.914;22.266;2023-04-01T17:00:39;12.79;74.20
75387;DHT22;63966;47.914;22.266;2023-04-01T17:03:46;12.78;74.11
75387;DHT22;63966;47.914;22.266;2023-04-01T17:16:53;12.51;74.52
75387;DHT22;63966;47.914;22.266;2023-04-01T17:20:10;12.44;74.68
75387;DHT22;63966;47.914;22.266;2023-04-01T17:23:20;12.41;74.71
75387;DHT22;63966;47.914;22.266;2023-04-01T17:30:25;12.17;75.43
75387;DHT22;63966;47.914;22.266;2023-04-01T17:34:09;12.03;76.03
75387;DHT22;63966;47.914;22.266;2023-04-01T17:44:25;11.75;77.02
75387;DHT22;63966;47.914;22.266;2023-04-01T17:47:55;11.72;76.82
75387;DHT22;63966;47.914;22.266;2023-04-01T18:11:17;10.94;82.01
75387;DHT22;63966;47.914;22.266;2023-04-01T18:31:19;11.00;81.77
75387;DHT22;63966;47.914;22.266;2023-04-01T18:38:16;10.70;83.67
75387;DHT22;63966;47.914;22.266;2023-04-01T18:41:59;10.52;84.37
75387;DHT22;63966;47.914;22.266;2023-04-01T18:45:18;10.55;83.81
75387;DHT22;63966;47.914;22.266;2023-04-01T18:48:52;10.53;83.75
75387;DHT22;63966;47.914;22.266;2023-04-01T18:55:21;10.32;85.11
75387;DHT22;63966;47.914;22.266;2023-04-01T18:58:52;10.36;84.69
75387;DHT22;63966;47.914;22.266;2023-04-01T19:02:31;10.29;85.67
75387;DHT22;63966;47.914;22.266;2023-04-01T19:05:40;10.15;86.30
75387;DHT22;63966;47.914;22.266;2023-04-01T19:08:45;10.07;86.32
75387;DHT22;63966;47.914;22.266;2023-04-01T19:21:53;9.74;87.32
75387;DHT22;63966;47.914;22.266;2023-04-01T19:28:46;9.54;88.09
75387;DHT22;63966;47.914;22.266;2023-04-01T19:32:07;9.50;88.31
75387;DHT22;63966;47.914;22.266;2023-04-01T19:38:53;9.26;89.08
75387;DHT22;63966;47.914;22.266;2023-04-01T19:42:05;9.20;89.15
75387;DHT22;63966;47.914;22.266;2023-04-01T19:48:48;8.97;89.28
75387;DHT22;63966;47.914;22.266;2023-04-01T19:52:35;8.88;89.69
75387;DHT22;63966;47.914;22.266;2023-04-01T19:55:57;8.87;89.84
75387;DHT22;63966;47.914;22.266;2023-04-01T20:05:51;8.84;90.27
75387;DHT22;63966;47.914;22.266;2023-04-01T20:09:25;8.77;90.37
75387;DHT22;63966;47.914;22.266;2023-04-01T20:12:42;8.80;90.34
75387;DHT22;63966;47.914;22.266;2023-04-01T20:15:59;8.75;90.38
75387;DHT22;63966;47.914;22.266;2023-04-01T20:19:04;8.70;90.16
75387;DHT22;63966;47.914;22.266;2023-04-01T20:26:32;8.57;90.54
75387;DHT22;63966;47.914;22.266;2023-04-01T20:32:49;8.39;91.24
75387;DHT22;63966;47.914;22.266;2023-04-01T20:51:04;8.25;91.41
75387;DHT22;63966;47.914;22.266;2023-04-01T20:58:20;8.16;91.16
75387;DHT22;63966;47.914;22.266;2023-04-01T21:01:47;8.03;91.24
75387;DHT22;63966;47.914;22.266;2023-04-01T21:05:22;7.82;91.57
75387;DHT22;63966;47.914;22.266;2023-04-01T21:09:04;7.71;91.94
75387;DHT22;63966;47.914;22.266;2023-04-01T21:29:09;7.50;93.13
75387;DHT22;63966;47.914;22.266;2023-04-01T21:32:23;7.43;92.79
75387;DHT22;63966;47.914;22.266;2023-04-01T21:49:39;6.99;92.60
75387;DHT22;63966;47.914;22.266;2023-04-01T22:00:07;7.07;93.99
75387;DHT22;63966;47.914;22.266;2023-04-01T22:07:02;6.96;93.90
75387;DHT22;63966;47.914;22.266;2023-04-01T22:10:38;6.89;93.56
75387;DHT22;63966;47.914;22.266;2023-04-01T22:13:46;6.82;93.53
75387;DHT22;63966;47.914;22.266;2023-04-01T22:17:24;6.75;93.68
75387;DHT22;63966;47.914;22.266;2023-04-01T22:20:40;6.64;93.36
75387;DHT22;63966;47.914;22.266;2023-04-01T22:24:02;6.57;93.46
75387;DHT22;63966;47.914;22.266;2023-04-01T22:37:03;6.50;93.49
75387;DHT22;63966;47.914;22.266;2023-04-01T22:40:22;6.65;94.11
75387;DHT22;63966;47.914;22.266;2023-04-01T22:43:43;6.67;93.89
75387;DHT22;63966;47.914;22.266;2023-04-01T22:47:02;6.59;93.71
75387;DHT22;63966;47.914;22.266;2023-04-01T22:50:22;6.44;93.78
75387;DHT22;63966;47.914;22.266;2023-04-01T22:54:00;6.40;93.76
75387;DHT22;63966;47.914;22.266;2023-04-01T23:03:58;6.57;94.30
75387;DHT22;63966;47.914;22.266;2023-04-01T23:10:49;6.30;93.91
75387;DHT22;63966;47.914;22.266;2023-04-01T23:34:35;6.65;93.84
75387;DHT22;63966;47.914;22.266;2023-04-01T23:37:39;6.44;94.28
75387;DHT22;63966;47.914;22.266;2023-04-01T23:40:42;6.26;94.50
75387;DHT22;63966;47.914;22.266;2023-04-01T23:43:54;6.31;95.27
75387;DHT22;63966;47.914;22.266;2023-04-01T23:46:59;6.44;95.61
75387;DHT22;63966;47.914;22.266;2023-04-01T23:50:14;6.41;95.65
75387;DHT22;63966;47.914;22.266;2023-04-01T23:53:23;6.26;95.29
75387;DHT22;63966;47.914;22.266;2023-04-01T23:57:02;6.27;95.41
